This is the latest recevied weather packets stored in our database for station/object KB3AWQ. If no packets are shown the sender has not sent any weather packets the latest 10 day(s).
| Time | Temp. | Humidity | Pressure | Rain* | Wind** | Luminosity | Snow |
|---|---|---|---|---|---|---|---|
| 1777657766 | 16.11° C | 49% | 1011.7 hPa | 0 mm | - | 269 W/m² | - |
| 1777657468 | 16.11° C | 47% | 1011.7 hPa | 0 mm | - | 397 W/m² | - |
| 1777657167 | 15.56° C | 50% | 1011.7 hPa | 0 mm | - | 472 W/m² | - |
| 1777656866 | 15.56° C | 48% | 1011.8 hPa | 0 mm | - | 361 W/m² | - |
| 1777656566 | 15.56° C | 50% | 1011.9 hPa | 0 mm | - | 261 W/m² | - |
| 1777656267 | 15.56° C | 48% | 1012 hPa | 0 mm | - | 304 W/m² | - |
| 1777655967 | 16.11° C | 48% | 1012 hPa | 0 mm | - | 408 W/m² | - |
| 1777655666 | 16.11° C | 45% | 1012.1 hPa | 0 mm | - | 402 W/m² | - |
| 1777655367 | 16.11° C | 48% | 1012.1 hPa | 0 mm | - | 550 W/m² | - |
| 1777655067 | 16.11° C | 47% | 1012.1 hPa | 0 mm | - | 572 W/m² | - |
| 1777654766 | 15.56° C | 48% | 1012.2 hPa | 0 mm | - | 528 W/m² | - |
| 1777654466 | 15° C | 50% | 1012.2 hPa | 0 mm | - | 851 W/m² | - |
| 1777654167 | 15° C | 47% | 1012.3 hPa | 0 mm | - | 639 W/m² | - |
| 1777653867 | 15.56° C | 43% | 1012.4 hPa | 0 mm | - | 607 W/m² | - |
| 1777653568 | 15.56° C | 46% | 1012.5 hPa | 0 mm | - | 514 W/m² | - |
| 1777653267 | 15.56° C | 47% | 1012.6 hPa | 0 mm | - | 674 W/m² | - |
| 1777652966 | 15° C | 50% | 1012.7 hPa | 0 mm | - | 1077 W/m² | - |
| 1777652667 | 15° C | 44% | 1012.7 hPa | 0 mm | - | 475 W/m² | - |
| 1777652367 | 15° C | 49% | 1012.8 hPa | 0 mm | - | 836 W/m² | - |
| 1777652068 | 15° C | 44% | 1012.9 hPa | 0 mm | - | 486 W/m² | - |
| 1777651767 | 15° C | 46% | 1012.9 hPa | 0 mm | - | 884 W/m² | - |
| 1777651467 | 15° C | 45% | 1013 hPa | 0 mm | - | 442 W/m² | - |
| 1777651167 | 15° C | 48% | 1013.1 hPa | 0 mm | - | 808 W/m² | - |
| 1777650867 | 14.44° C | 48% | 1013.2 hPa | 0 mm | - | 560 W/m² | - |
| 1777650567 | 13.89° C | 49% | 1013.3 hPa | 0 mm | - | 847 W/m² | - |
* Rain latest hour (hover to see other rain measurements)
** Current wind speed in m/s (hover to see current wind gust speed)